Time;durP1;ratioP1;P1;durP2;ratioP2;P2;SDS_P1;SDS_P2;PMS_P1;PMS_P2;Temp;Humidity;BMP_temperature;BMP_pressure;BME280_temperature;BME280_humidity;BME280_pressure;Samples;Min_cycle;Max_cycle;Signal;HPM_P1;HPM_P2
2020/12/04 00:00:08;;;;;;;23.20;10.02;;;8.30;78.90;;;;;;4991490;28;20022;-62
2020/12/04 00:02:34;;;;;;;19.52;9.35;;;8.20;78.90;;;;;;4991168;28;20026;-62
2020/12/04 00:05:00;;;;;;;26.98;10.13;;;8.30;78.90;;;;;;4991238;28;20058;-62
2020/12/04 00:07:25;;;;;;;19.10;9.48;;;8.20;78.90;;;;;;4990129;28;20489;-62
2020/12/04 00:09:51;;;;;;;21.73;9.55;;;8.20;79.00;;;;;;4991069;28;20464;-62
2020/12/04 00:12:16;;;;;;;20.67;9.27;;;8.20;78.90;;;;;;4990752;28;20030;-62
2020/12/04 00:14:42;;;;;;;24.00;10.75;;;8.20;79.10;;;;;;4991322;28;20053;-62
2020/12/04 00:17:08;;;;;;;20.70;9.77;;;8.30;79.00;;;;;;4989760;28;20068;-62
2020/12/04 00:19:33;;;;;;;20.50;9.85;;;8.30;79.20;;;;;;4990497;28;20026;-61
2020/12/04 00:21:59;;;;;;;26.42;10.25;;;8.30;78.90;;;;;;4990367;28;20092;-62
2020/12/04 00:24:24;;;;;;;20.30;8.68;;;8.20;78.80;;;;;;4991339;28;20038;-62
2020/12/04 00:26:50;;;;;;;20.60;9.52;;;8.30;78.90;;;;;;4990916;28;20026;-62
2020/12/04 00:29:16;;;;;;;20.45;9.05;;;8.30;78.90;;;;;;4990610;28;20037;-63
2020/12/04 00:31:41;;;;;;;23.65;10.02;;;8.20;78.90;;;;;;4991055;28;20493;-62
2020/12/04 00:34:07;;;;;;;19.30;8.07;;;8.20;79.50;;;;;;4990373;28;20026;-62
2020/12/04 00:36:34;;;;;;;22.90;9.48;;;8.30;78.80;;;;;;4990326;28;20057;-62
2020/12/04 00:38:59;;;;;;;23.35;9.68;;;8.30;78.90;;;;;;4990421;28;20061;-62
2020/12/04 00:41:25;;;;;;;23.92;9.93;;;8.20;78.60;;;;;;4990314;28;20062;-62
2020/12/04 00:43:51;;;;;;;22.73;9.68;;;8.20;78.90;;;;;;4990290;28;20030;-62
2020/12/04 00:46:17;;;;;;;25.25;10.48;;;8.20;78.80;;;;;;4990127;28;20496;-62
2020/12/04 00:48:44;;;;;;;19.40;8.30;;;8.20;78.90;;;;;;4990608;28;20098;-62
2020/12/04 00:51:10;;;;;;;20.63;9.32;;;8.20;78.90;;;;;;4990445;28;20014;-62
2020/12/04 00:53:35;;;;;;;24.38;9.65;;;8.20;78.90;;;;;;4990728;28;20788;-62
2020/12/04 00:56:01;;;;;;;25.42;9.52;;;8.30;79.00;;;;;;4990369;28;20027;-61
2020/12/04 00:58:26;;;;;;;19.70;9.18;;;8.20;78.70;;;;;;4990131;28;20027;-62
2020/12/04 01:00:52;;;;;;;22.48;10.07;;;8.20;78.80;;;;;;4989967;28;20428;-62
2020/12/04 01:03:18;;;;;;;23.05;9.80;;;8.20;78.70;;;;;;4990795;28;20019;-62
2020/12/04 01:05:44;;;;;;;22.58;9.52;;;8.20;78.90;;;;;;4989460;28;20042;-62
2020/12/04 01:08:10;;;;;;;21.23;8.55;;;8.20;78.80;;;;;;4994567;28;20423;-62
2020/12/04 01:10:35;;;;;;;22.23;9.13;;;8.20;78.80;;;;;;4994095;28;20393;-62
2020/12/04 01:13:01;;;;;;;19.83;9.20;;;8.20;78.80;;;;;;4994322;28;20022;-63
2020/12/04 01:15:27;;;;;;;23.67;10.88;;;8.20;78.90;;;;;;4994071;28;20396;-62
2020/12/04 01:17:52;;;;;;;22.42;10.27;;;8.20;79.10;;;;;;4993818;28;20027;-62
2020/12/04 01:20:18;;;;;;;21.75;10.20;;;8.20;78.90;;;;;;4993522;28;20073;-62
2020/12/04 01:22:43;;;;;;;22.83;10.05;;;8.20;79.00;;;;;;4994459;28;20045;-62
2020/12/04 01:25:09;;;;;;;22.17;10.13;;;8.20;79.10;;;;;;4994266;28;20117;-62
2020/12/04 01:27:35;;;;;;;27.30;10.10;;;8.20;78.80;;;;;;4993802;28;20101;-62
2020/12/04 01:30:00;;;;;;;21.38;10.43;;;8.20;78.80;;;;;;4994154;28;20034;-62
2020/12/04 01:32:26;;;;;;;28.27;11.45;;;8.20;78.90;;;;;;4993744;28;20031;-62
2020/12/04 01:34:51;;;;;;;24.17;10.40;;;8.20;78.80;;;;;;4993284;28;20049;-62
2020/12/04 01:37:17;;;;;;;26.77;10.63;;;8.20;79.10;;;;;;4993476;28;20022;-63
2020/12/04 01:39:43;;;;;;;23.23;10.18;;;8.20;78.90;;;;;;4993875;28;20026;-62
2020/12/04 01:42:08;;;;;;;25.40;10.65;;;8.20;78.90;;;;;;4993767;28;20366;-62
2020/12/04 01:44:34;;;;;;;18.98;10.00;;;8.20;79.10;;;;;;4993948;28;20034;-62
2020/12/04 01:47:00;;;;;;;21.65;8.63;;;8.20;78.70;;;;;;4993038;28;20034;-62
2020/12/04 01:49:25;;;;;;;23.90;9.10;;;8.20;78.90;;;;;;4993039;28;20428;-62
2020/12/04 01:51:54;;;;;;;21.00;10.07;;;8.20;78.80;;;;;;4993780;28;20022;-62
2020/12/04 01:54:21;;;;;;;17.77;8.43;;;8.20;78.90;;;;;;4994039;28;20026;-62
2020/12/04 01:56:47;;;;;;;23.35;10.50;;;8.20;78.60;;;;;;4993255;28;20027;-62
2020/12/04 01:59:13;;;;;;;22.13;9.50;;;8.20;78.70;;;;;;4988999;28;20041;-62
2020/12/04 02:01:42;;;;;;;21.13;9.48;;;8.20;78.70;;;;;;4992691;28;20046;-62
2020/12/04 02:04:09;;;;;;;22.20;8.82;;;8.20;78.80;;;;;;4993011;28;20481;-62
2020/12/04 02:06:39;;;;;;;22.25;9.75;;;8.20;78.80;;;;;;4992692;28;20038;-62
2020/12/04 02:09:09;;;;;;;22.05;8.65;;;8.20;78.90;;;;;;4993535;28;20032;-62
2020/12/04 02:11:36;;;;;;;;;;;8.20;78.80;;;;;;4994009;28;20058;-61
2020/12/04 02:14:02;;;;;;;17.38;8.23;;;8.20;78.80;;;;;;4993228;28;19914;-62
2020/12/04 02:16:28;;;;;;;23.25;9.07;;;8.20;78.80;;;;;;4991889;28;20053;-62
2020/12/04 02:18:54;;;;;;;20.30;9.23;;;8.20;78.80;;;;;;4992067;28;20022;-62
2020/12/04 02:21:20;;;;;;;19.67;8.95;;;8.20;78.90;;;;;;4993597;28;20491;-62
2020/12/04 02:23:48;;;;;;;14.68;7.22;;;8.20;78.80;;;;;;4993219;28;20022;-62
2020/12/04 02:26:16;;;;;;;18.58;9.15;;;8.20;78.80;;;;;;4992223;28;20065;-62
2020/12/04 02:28:42;;;;;;;19.40;9.35;;;8.20;78.70;;;;;;4992985;28;20038;-62
2020/12/04 02:31:07;;;;;;;19.95;10.07;;;8.20;78.80;;;;;;4992760;28;20037;-62
2020/12/04 02:33:34;;;;;;;22.17;9.93;;;8.20;78.70;;;;;;4992025;28;20388;-62
2020/12/04 02:36:00;;;;;;;22.98;10.30;;;8.20;78.80;;;;;;4991850;28;20033;-62
2020/12/04 02:38:27;;;;;;;20.25;8.95;;;8.20;79.30;;;;;;5007616;28;20472;-62
2020/12/04 02:40:53;;;;;;;28.02;9.75;;;8.20;78.70;;;;;;4992852;28;20092;-62
2020/12/04 02:43:19;;;;;;;24.50;9.40;;;8.20;78.80;;;;;;4991705;28;20035;-62
2020/12/04 02:45:45;;;;;;;19.50;9.05;;;8.20;78.60;;;;;;4991485;28;20456;-62
2020/12/04 02:48:11;;;;;;;13.77;7.80;;;8.20;78.70;;;;;;4992320;28;20490;-61
2020/12/04 02:50:37;;;;;;;20.05;9.63;;;8.20;78.60;;;;;;4992373;28;20362;-61
2020/12/04 02:53:03;;;;;;;24.13;10.20;;;8.20;78.60;;;;;;4992823;28;20045;-62
2020/12/04 02:55:29;;;;;;;19.08;9.25;;;8.20;78.80;;;;;;4992632;28;20447;-62
2020/12/04 02:57:55;;;;;;;19.23;9.13;;;8.20;78.90;;;;;;4992054;28;20026;-62
2020/12/04 03:00:20;;;;;;;19.70;9.57;;;8.20;78.60;;;;;;4991934;28;20041;-62
2020/12/04 03:02:46;;;;;;;20.42;8.75;;;8.20;78.80;;;;;;4992551;28;20035;-62
2020/12/04 03:05:12;;;;;;;22.27;8.95;;;8.20;78.60;;;;;;4991959;28;20026;-62
2020/12/04 03:07:37;;;;;;;17.80;8.43;;;8.20;78.80;;;;;;4991815;28;20053;-62
2020/12/04 03:10:07;;;;;;;19.17;8.10;;;8.20;78.60;;;;;;4992019;28;20056;-62
2020/12/04 03:12:33;;;;;;;18.20;8.48;;;8.20;78.70;;;;;;4992284;28;20532;-62
2020/12/04 03:15:03;;;;;;;21.63;9.00;;;8.20;79.30;;;;;;4992213;28;20412;-62
2020/12/04 03:17:29;;;;;;;16.95;8.27;;;8.20;78.50;;;;;;4991470;28;20053;-62
2020/12/04 03:19:56;;;;;;;21.08;8.88;;;8.20;78.60;;;;;;4991611;28;20034;-62
2020/12/04 03:22:22;;;;;;;18.13;8.55;;;8.20;78.60;;;;;;4991802;28;20037;-62
2020/12/04 03:24:48;;;;;;;19.83;8.05;;;8.20;78.40;;;;;;4992070;28;20026;-62
2020/12/04 03:27:13;;;;;;;17.17;8.40;;;8.20;78.80;;;;;;4991674;28;20022;-62
2020/12/04 03:29:39;;;;;;;19.40;9.77;;;8.20;78.50;;;;;;4990565;28;20033;-62
2020/12/04 03:32:05;;;;;;;19.65;8.70;;;8.20;78.60;;;;;;4991676;28;20030;-62
2020/12/04 03:34:30;;;;;;;22.50;9.65;;;8.20;78.60;;;;;;4991558;28;20023;-62
2020/12/04 03:36:56;;;;;;;27.08;8.80;;;8.20;78.50;;;;;;4991067;28;20463;-62
2020/12/04 03:39:22;;;;;;;16.80;8.18;;;8.20;78.40;;;;;;4991500;28;20072;-62
2020/12/04 03:41:48;;;;;;;18.23;7.85;;;8.20;78.60;;;;;;4991487;28;20038;-62
2020/12/04 03:44:14;;;;;;;24.27;9.40;;;8.20;78.40;;;;;;4991483;28;20389;-62
2020/12/04 03:46:43;;;;;;;20.27;9.55;;;8.20;78.40;;;;;;4991127;28;20114;-62
2020/12/04 03:49:10;;;;;;;19.40;8.45;;;8.20;78.40;;;;;;4990937;28;20034;-62
2020/12/04 03:51:35;;;;;;;18.92;8.75;;;8.20;78.40;;;;;;4991492;28;20033;-62
2020/12/04 03:54:01;;;;;;;22.13;9.40;;;8.20;78.30;;;;;;4990296;28;20022;-62
2020/12/04 03:56:26;;;;;;;18.50;8.57;;;8.20;78.50;;;;;;4990862;28;20113;-62
2020/12/04 03:58:52;;;;;;;23.40;10.15;;;8.20;78.50;;;;;;4990931;28;20030;-62
2020/12/04 04:01:18;;;;;;;23.27;9.70;;;8.20;78.40;;;;;;4991346;28;20022;-62
2020/12/04 04:03:43;;;;;;;21.70;8.98;;;8.20;78.40;;;;;;4991602;28;20056;-62
2020/12/04 04:06:09;;;;;;;18.42;8.57;;;8.20;78.40;;;;;;4991133;28;20392;-62
2020/12/04 04:08:35;;;;;;;17.23;8.43;;;8.20;78.40;;;;;;4990370;28;20767;-62
2020/12/04 04:11:00;;;;;;;21.92;9.38;;;8.20;78.20;;;;;;4990738;28;20476;-62
2020/12/04 04:13:26;;;;;;;19.48;8.23;;;8.20;78.50;;;;;;4991049;28;20034;-62
2020/12/04 04:15:51;;;;;;;17.08;8.77;;;8.20;78.30;;;;;;4991091;28;20018;-62
2020/12/04 04:18:17;;;;;;;18.08;8.23;;;8.20;78.20;;;;;;4991042;28;20030;-62
2020/12/04 04:20:43;;;;;;;18.52;8.27;;;8.20;78.20;;;;;;4990577;28;20033;-62
2020/12/04 04:23:08;;;;;;;24.13;9.70;;;8.20;78.10;;;;;;4990880;28;20031;-62
2020/12/04 04:25:34;;;;;;;20.38;8.63;;;8.20;78.20;;;;;;4990583;28;20040;-62
2020/12/04 04:28:00;;;;;;;19.17;8.55;;;8.20;78.10;;;;;;4990338;28;20118;-62
2020/12/04 04:30:25;;;;;;;18.02;8.45;;;8.20;78.10;;;;;;4990968;28;20445;-62
2020/12/04 04:32:51;;;;;;;23.05;9.23;;;8.20;78.10;;;;;;4990628;28;20105;-62
2020/12/04 04:35:16;;;;;;;18.95;9.05;;;8.20;78.20;;;;;;4990795;28;20389;-63
2020/12/04 04:37:43;;;;;;;16.90;8.15;;;8.20;78.90;;;;;;4990482;28;20026;-62
2020/12/04 04:40:09;;;;;;;16.08;8.23;;;8.20;78.00;;;;;;4990186;28;20488;-62
2020/12/04 04:42:35;;;;;;;25.27;9.15;;;8.20;78.10;;;;;;4971280;28;20034;-62
2020/12/04 04:45:03;;;;;;;25.50;9.00;;;8.20;78.10;;;;;;4985676;28;20049;-62
2020/12/04 04:47:30;;;;;;;16.65;7.38;;;8.20;78.10;;;;;;4990094;28;20030;-61
2020/12/04 04:49:56;;;;;;;18.25;8.65;;;8.20;78.20;;;;;;4990226;28;20034;-62
2020/12/04 04:52:24;;;;;;;18.63;8.98;;;8.20;78.10;;;;;;4989922;28;20034;-62
2020/12/04 04:54:50;;;;;;;23.40;9.80;;;8.20;78.10;;;;;;4990371;28;20038;-62
2020/12/04 04:57:24;;;;;;;22.05;9.80;;;8.20;78.00;;;;;;4990560;28;20027;-63
2020/12/04 04:59:51;;;;;;;15.98;8.77;;;8.20;78.30;;;;;;4975591;28;20393;-61
2020/12/04 05:02:16;;;;;;;15.80;8.00;;;8.20;78.20;;;;;;4990421;28;20053;-63
2020/12/04 05:05:08;;;;;;;22.70;9.35;;;8.20;78.20;;;;;;4989570;28;20026;-61
2020/12/04 05:07:34;;;;;;;19.42;8.10;;;8.20;78.10;;;;;;4987973;28;20066;-62
2020/12/04 05:10:20;;;;;;;22.60;9.80;;;8.20;78.10;;;;;;4990203;28;20034;-62
2020/12/04 05:13:01;;;;;;;21.50;9.38;;;8.20;78.20;;;;;;4990285;28;20066;-62
2020/12/04 05:15:28;;;;;;;20.17;9.23;;;8.20;78.10;;;;;;4990380;28;20429;-62
2020/12/04 05:18:11;;;;;;;20.90;7.43;;;8.20;78.20;;;;;;4989538;28;20038;-62
2020/12/04 05:20:39;;;;;;;21.52;9.32;;;8.20;78.10;;;;;;4990157;28;20488;-62
2020/12/04 05:23:06;;;;;;;18.67;8.15;;;8.20;78.10;;;;;;4989811;28;20477;-61
2020/12/04 05:25:44;;;;;;;18.42;9.02;;;8.20;78.30;;;;;;4990493;28;20092;-62
2020/12/04 05:28:16;;;;;;;27.88;10.05;;;8.20;78.30;;;;;;4989835;28;20362;-62
2020/12/04 05:30:45;;;;;;;20.05;8.80;;;8.20;78.30;;;;;;4990060;28;20027;-62
2020/12/04 05:33:11;;;;;;;20.95;9.18;;;8.20;78.30;;;;;;4990344;28;20089;-61
2020/12/04 05:35:38;;;;;;;18.67;8.80;;;8.20;78.40;;;;;;4989812;28;20480;-62
2020/12/04 05:38:05;;;;;;;21.92;9.02;;;8.20;78.20;;;;;;4986730;28;20026;-62
2020/12/04 05:40:30;;;;;;;27.90;11.07;;;8.20;78.70;;;;;;4988719;28;20396;-62
2020/12/04 05:42:56;;;;;;;19.25;8.85;;;8.20;78.60;;;;;;4989081;28;20117;-62
2020/12/04 05:45:21;;;;;;;26.15;9.77;;;8.20;78.60;;;;;;4989449;28;20050;-62
2020/12/04 05:47:48;;;;;;;19.38;9.45;;;8.20;78.20;;;;;;4990503;28;20027;-62
2020/12/04 05:50:14;;;;;;;23.05;10.52;;;8.20;78.30;;;;;;4989697;28;20026;-61
2020/12/04 05:52:41;;;;;;;28.75;10.80;;;8.20;78.40;;;;;;4990671;28;20054;-61
2020/12/04 05:55:08;;;;;;;20.75;9.50;;;8.20;78.40;;;;;;4993924;28;20100;-62
2020/12/04 05:57:52;;;;;;;28.30;10.07;;;8.20;78.30;;;;;;4993268;28;20032;-62
2020/12/04 06:00:19;;;;;;;22.02;8.52;;;8.20;78.20;;;;;;4988811;28;20042;-62
2020/12/04 06:02:46;;;;;;;15.95;8.40;;;8.20;78.30;;;;;;4988705;28;20019;-63
2020/12/04 06:05:14;;;;;;;22.05;8.70;;;8.20;78.30;;;;;;4995089;28;20111;-62
2020/12/04 06:07:40;;;;;;;25.85;9.32;;;8.20;78.20;;;;;;5005743;28;20030;-64
2020/12/04 06:10:07;;;;;;;19.10;9.25;;;8.20;78.20;;;;;;4979723;28;20519;-63
2020/12/04 06:12:33;;;;;;;20.17;8.80;;;8.20;78.10;;;;;;4986052;28;20118;-64
2020/12/04 06:15:22;;;;;;;21.23;9.02;;;8.20;78.10;;;;;;4983415;28;20018;-63
2020/12/04 06:17:49;;;;;;;21.55;9.32;;;8.20;78.20;;;;;;4992979;28;20085;-63
2020/12/04 06:20:22;;;;;;;22.55;9.18;;;8.10;78.90;;;;;;4990857;28;20077;-63
2020/12/04 06:23:07;;;;;;;23.60;10.88;;;8.10;77.50;;;;;;4992139;28;20493;-64
2020/12/04 06:25:52;;;;;;;23.13;9.25;;;8.10;77.30;;;;;;4991803;28;20038;-64
2020/12/04 06:28:20;;;;;;;19.52;9.82;;;8.10;77.10;;;;;;4990557;28;20026;-65
2020/12/04 06:30:59;;;;;;;25.70;10.43;;;8.10;77.00;;;;;;4989700;28;20053;-63
2020/12/04 06:33:33;;;;;;;20.55;9.45;;;8.10;76.90;;;;;;4983140;28;20382;-63
2020/12/04 06:36:00;;;;;;;22.38;9.50;;;8.10;76.80;;;;;;4991630;28;20023;-64
2020/12/04 06:38:35;;;;;;;26.52;9.82;;;8.10;76.90;;;;;;4989957;28;20030;-63
2020/12/04 06:41:32;;;;;;;21.38;9.95;;;8.10;76.80;;;;;;4993680;28;20037;-63
2020/12/04 06:44:07;;;;;;;26.65;9.23;;;8.10;76.90;;;;;;4994678;28;20026;-63
2020/12/04 06:46:40;;;;;;;31.25;10.98;;;8.10;76.90;;;;;;4997853;28;20038;-64
2020/12/04 06:49:08;;;;;;;20.98;9.40;;;8.10;76.90;;;;;;5003121;28;20461;-64
2020/12/04 06:51:34;;;;;;;24.38;9.85;;;8.20;76.90;;;;;;4991690;28;20026;-64
2020/12/04 06:54:00;;;;;;;19.83;10.05;;;8.10;76.80;;;;;;4992030;28;20105;-64
2020/12/04 06:56:26;;;;;;;21.30;10.80;;;8.20;77.10;;;;;;4991996;28;20110;-63
2020/12/04 06:58:52;;;;;;;22.17;9.98;;;8.10;76.80;;;;;;4991899;28;20026;-64
2020/12/04 07:01:18;;;;;;;19.40;9.18;;;8.20;77.70;;;;;;4989112;28;20499;-64
2020/12/04 07:03:45;;;;;;;22.98;9.60;;;8.20;77.10;;;;;;4991009;28;20129;-64
2020/12/04 07:06:11;;;;;;;19.85;8.88;;;8.10;77.00;;;;;;4991095;28;20555;-64
2020/12/04 07:08:37;;;;;;;22.60;9.73;;;8.20;77.40;;;;;;4990388;28;20038;-64
2020/12/04 07:11:03;;;;;;;18.70;9.05;;;8.20;77.20;;;;;;5001173;28;20125;-63
2020/12/04 07:13:28;;;;;;;22.75;9.65;;;8.20;77.00;;;;;;4986777;28;20118;-64
2020/12/04 07:16:00;;;;;;;23.27;9.85;;;8.20;77.20;;;;;;4978373;28;20026;-64
2020/12/04 07:18:30;;;;;;;24.98;10.35;;;8.20;76.90;;;;;;4972050;28;20497;-63
2020/12/04 07:20:56;;;;;;;25.88;9.95;;;8.20;77.00;;;;;;4983472;28;20027;-64
2020/12/04 07:23:22;;;;;;;23.60;9.30;;;8.20;76.90;;;;;;4988761;28;20033;-64
2020/12/04 07:25:47;;;;;;;21.85;9.85;;;8.20;76.90;;;;;;4992955;28;20056;-63
2020/12/04 07:28:13;;;;;;;26.20;9.93;;;8.20;77.20;;;;;;4990871;28;20031;-64
2020/12/04 07:30:39;;;;;;;17.00;8.48;;;8.20;77.20;;;;;;4990295;28;20026;-63
2020/12/04 07:33:04;;;;;;;24.73;9.68;;;8.20;77.10;;;;;;4991619;28;20026;-64
2020/12/04 07:35:30;;;;;;;27.48;10.73;;;8.20;77.10;;;;;;4990012;28;20030;-64
2020/12/04 07:37:56;;;;;;;21.02;9.27;;;8.20;77.00;;;;;;4989713;28;20653;-63
2020/12/04 07:40:21;;;;;;;26.92;10.75;;;8.20;77.00;;;;;;4989843;28;20050;-63
2020/12/04 07:42:48;;;;;;;23.88;9.40;;;8.20;77.20;;;;;;4991699;28;20029;-63
2020/12/04 07:45:17;;;;;;;20.77;10.32;;;8.20;77.20;;;;;;4990370;28;20093;-64
2020/12/04 07:47:44;;;;;;;29.48;11.95;;;8.20;77.20;;;;;;4988621;28;20034;-64
2020/12/04 07:50:14;;;;;;;21.08;9.90;;;8.20;77.40;;;;;;5000278;28;20506;-63
2020/12/04 07:52:50;;;;;;;27.45;10.63;;;8.20;77.20;;;;;;4990675;28;20431;-64
2020/12/04 07:55:20;;;;;;;25.52;10.15;;;8.20;77.30;;;;;;4992455;28;20035;-65
2020/12/04 07:58:00;;;;;;;25.35;11.02;;;8.20;77.40;;;;;;4992282;28;20026;-64
2020/12/04 08:00:31;;;;;;;22.27;9.07;;;8.20;77.30;;;;;;4989324;28;20053;-63
2020/12/04 08:03:12;;;;;;;26.88;10.60;;;8.20;77.20;;;;;;4990928;28;20117;-63
2020/12/04 08:05:39;;;;;;;26.00;10.70;;;8.20;77.40;;;;;;4989058;28;20448;-64
2020/12/04 08:08:05;;;;;;;22.83;10.43;;;8.20;77.70;;;;;;4967043;28;20134;-64
2020/12/04 08:10:31;;;;;;;27.60;11.20;;;8.20;77.30;;;;;;4980496;28;20022;-64
2020/12/04 08:12:57;;;;;;;24.67;10.38;;;8.20;77.40;;;;;;4974047;28;20046;-64
2020/12/04 08:15:23;;;;;;;21.88;9.70;;;8.30;77.40;;;;;;4972538;28;20034;-64
2020/12/04 08:18:06;;;;;;;33.72;10.80;;;8.30;77.70;;;;;;4979395;28;20037;-63
2020/12/04 08:20:32;;;;;;;21.17;9.27;;;8.30;77.50;;;;;;4983143;28;20440;-63
2020/12/04 08:22:57;;;;;;;23.15;10.60;;;8.30;77.80;;;;;;4989596;28;20039;-63
2020/12/04 08:25:30;;;;;;;24.83;10.52;;;8.30;77.80;;;;;;4986810;28;20035;-64
2020/12/04 08:27:57;;;;;;;28.40;10.98;;;8.30;77.50;;;;;;4996046;28;20102;-64
2020/12/04 08:30:24;;;;;;;24.85;10.70;;;8.30;77.50;;;;;;4989144;28;20483;-64
2020/12/04 08:32:56;;;;;;;31.48;10.57;;;8.30;77.70;;;;;;4988010;28;20015;-64
2020/12/04 08:35:25;;;;;;;28.27;10.45;;;8.40;78.10;;;;;;4986775;28;20030;-63
2020/12/04 08:37:51;;;;;;;30.45;10.75;;;8.40;77.60;;;;;;4972682;28;20124;-63
2020/12/04 08:40:32;;;;;;;25.92;10.52;;;8.40;78.10;;;;;;4986734;28;20129;-64
2020/12/04 08:43:27;;;;;;;30.92;11.18;;;8.40;78.30;;;;;;4973056;28;20150;-63
2020/12/04 08:45:55;;;;;;;23.15;10.73;;;8.40;77.90;;;;;;4979552;28;20089;-63
2020/12/04 08:48:23;;;;;;;28.42;12.15;;;8.40;77.70;;;;;;4972604;28;20039;-64
2020/12/04 08:50:53;;;;;;;32.80;11.68;;;8.40;77.90;;;;;;4980117;28;20132;-63
2020/12/04 08:53:20;;;;;;;26.20;10.45;;;8.40;78.10;;;;;;4981991;28;20039;-64
2020/12/04 08:55:57;;;;;;;31.02;11.00;;;8.40;78.10;;;;;;4974400;28;20109;-64
2020/12/04 08:58:24;;;;;;;33.25;13.02;;;8.40;78.40;;;;;;4969785;28;20122;-64
2020/12/04 09:00:52;;;;;;;29.40;11.43;;;8.40;78.20;;;;;;4982715;28;20109;-64
2020/12/04 09:03:20;;;;;;;30.50;12.95;;;8.40;78.30;;;;;;5013240;28;20432;-64
2020/12/04 09:05:46;;;;;;;34.08;12.90;;;8.40;78.20;;;;;;4984215;28;20034;-63
2020/12/04 09:08:12;;;;;;;32.00;13.02;;;8.40;78.00;;;;;;4981858;28;20022;-65
2020/12/04 09:10:39;;;;;;;41.00;14.45;;;8.40;78.50;;;;;;4978914;28;20031;-63
2020/12/04 09:13:07;;;;;;;34.78;12.38;;;8.40;78.60;;;;;;4970204;28;20038;-64
2020/12/04 09:15:33;;;;;;;35.55;12.80;;;8.40;78.70;;;;;;4994763;28;20046;-64
2020/12/04 09:17:59;;;;;;;27.92;12.48;;;8.40;78.40;;;;;;4978193;28;20034;-64
2020/12/04 09:20:25;;;;;;;29.05;11.50;;;8.50;78.60;;;;;;4989408;28;20529;-63
2020/12/04 09:22:52;;;;;;;30.70;12.13;;;8.50;78.70;;;;;;4971151;28;20034;-64
2020/12/04 09:25:18;;;;;;;30.98;11.70;;;8.50;78.30;;;;;;4972453;28;20050;-64
2020/12/04 09:27:45;;;;;;;29.05;13.18;;;8.50;78.60;;;;;;4982050;28;20026;-64
2020/12/04 09:30:13;;;;;;;40.33;13.00;;;8.60;77.90;;;;;;4979320;28;20070;-63
2020/12/04 09:32:41;;;;;;;29.35;12.35;;;8.60;77.90;;;;;;4974648;28;20487;-63
2020/12/04 09:35:07;;;;;;;28.70;11.90;;;8.60;78.20;;;;;;4983497;28;20014;-63
2020/12/04 09:37:35;;;;;;;29.17;12.07;;;8.60;78.40;;;;;;4980982;28;20491;-64
2020/12/04 09:40:07;;;;;;;26.85;12.18;;;8.70;77.70;;;;;;4982741;28;20097;-64
2020/12/04 09:42:32;;;;;;;24.92;11.20;;;8.70;77.90;;;;;;4974132;28;20521;-63
2020/12/04 09:44:58;;;;;;;36.70;12.35;;;8.70;77.90;;;;;;4973561;28;20077;-63
2020/12/04 09:47:24;;;;;;;30.52;11.43;;;8.60;77.50;;;;;;4980146;28;20393;-64
2020/12/04 09:49:51;;;;;;;28.75;12.65;;;8.60;78.20;;;;;;4973450;28;20278;-63
2020/12/04 09:52:18;;;;;;;28.10;11.43;;;8.60;78.40;;;;;;4977443;28;20050;-64
2020/12/04 09:54:45;;;;;;;27.70;12.13;;;8.50;78.50;;;;;;4973510;28;20029;-64
2020/12/04 09:57:12;;;;;;;31.98;11.73;;;8.50;78.70;;;;;;4979060;28;20022;-64
2020/12/04 09:59:39;;;;;;;30.85;12.07;;;8.50;78.60;;;;;;4975586;28;20085;-64
2020/12/04 10:02:05;;;;;;;29.67;12.63;;;8.50;78.40;;;;;;4973748;28;20034;-63
2020/12/04 10:04:32;;;;;;;32.28;11.88;;;8.60;78.90;;;;;;4976351;28;20046;-64
2020/12/04 10:06:58;;;;;;;34.03;12.85;;;8.50;79.00;;;;;;4976264;28;20124;-64
2020/12/04 10:09:25;;;;;;;24.58;11.35;;;8.60;78.60;;;;;;4982356;28;20132;-63
2020/12/04 10:11:51;;;;;;;25.08;10.55;;;8.50;78.60;;;;;;4999344;28;20044;-64
2020/12/04 10:14:17;;;;;;;32.50;13.10;;;8.50;79.00;;;;;;4998381;28;20084;-65
2020/12/04 10:16:44;;;;;;;30.58;12.20;;;8.50;78.80;;;;;;4996151;28;20393;-64
2020/12/04 10:19:15;;;;;;;24.73;10.73;;;8.50;78.80;;;;;;4992728;28;20524;-64
2020/12/04 10:21:40;;;;;;;;;;;8.50;79.00;;;;;;4995642;28;20113;-64
2020/12/04 10:24:07;;;;;;;33.67;14.40;;;8.50;78.60;;;;;;4991369;28;20000;-64
2020/12/04 10:26:40;;;;;;;27.30;12.20;;;8.50;79.10;;;;;;4992843;28;20045;-64
2020/12/04 10:29:07;;;;;;;29.27;12.02;;;8.50;79.10;;;;;;4994986;28;20496;-63
2020/12/04 10:31:33;;;;;;;37.08;16.25;;;8.50;78.80;;;;;;4993530;28;20041;-64
2020/12/04 10:33:59;;;;;;;31.58;13.40;;;8.50;79.10;;;;;;4985343;28;20027;-64
2020/12/04 10:36:27;;;;;;;38.58;13.75;;;8.40;79.00;;;;;;4978360;28;20477;-64
2020/12/04 10:38:54;;;;;;;31.30;13.00;;;8.40;78.60;;;;;;4975622;28;20027;-63
2020/12/04 10:41:21;;;;;;;26.23;12.25;;;8.40;78.90;;;;;;4976473;28;20450;-64
2020/12/04 10:43:48;;;;;;;28.90;11.43;;;8.40;79.00;;;;;;4981865;28;20097;-64
2020/12/04 10:50:16;;;;;;;32.15;12.63;;;8.50;79.20;;;;;;4966977;28;20069;-64
2020/12/04 10:52:42;;;;;;;34.13;12.82;;;8.50;79.30;;;;;;4979756;28;20034;-64
2020/12/04 10:55:07;;;;;;;37.42;15.18;;;8.50;79.10;;;;;;4977281;28;20037;-64
2020/12/04 10:57:33;;;;;;;31.50;13.23;;;8.50;79.30;;;;;;4986281;28;20034;-64
2020/12/04 10:59:58;;;;;;;28.17;11.43;;;8.50;79.20;;;;;;4981115;28;20046;-64
2020/12/04 11:02:33;;;;;;;32.45;14.07;;;8.50;79.10;;;;;;4978043;28;20036;-64
2020/12/04 11:07:43;;;;;;;33.25;13.85;;;8.50;79.50;;;;;;4975996;28;20499;-64
2020/12/04 11:10:09;;;;;;;33.13;12.05;;;8.50;79.30;;;;;;4971292;28;20026;-63
2020/12/04 11:12:34;;;;;;;40.60;13.88;;;8.50;79.10;;;;;;4977367;28;20071;-64
2020/12/04 11:15:00;;;;;;;33.58;13.95;;;8.50;79.50;;;;;;4981132;28;20081;-63
2020/12/04 11:17:25;;;;;;;33.20;13.57;;;8.50;79.30;;;;;;4979244;28;20287;-63
2020/12/04 11:19:54;;;;;;;30.27;13.70;;;8.50;79.20;;;;;;4989587;28;20469;-64
2020/12/04 11:22:20;;;;;;;29.27;13.35;;;8.50;78.80;;;;;;4973587;28;20119;-64
2020/12/04 11:24:45;;;;;;;28.00;11.35;;;8.50;79.20;;;;;;4978014;28;20105;-64
2020/12/04 11:27:12;;;;;;;30.52;11.93;;;8.50;79.10;;;;;;4967650;28;20474;-64
2020/12/04 11:29:38;;;;;;;39.55;14.30;;;8.50;79.30;;;;;;4979358;28;20092;-63
2020/12/04 11:32:04;;;;;;;29.33;12.35;;;8.50;79.10;;;;;;4988460;28;20032;-64
2020/12/04 11:34:30;;;;;;;35.00;13.23;;;8.50;79.40;;;;;;4987075;28;20026;-63
2020/12/04 11:36:56;;;;;;;36.95;13.68;;;8.50;79.10;;;;;;4971573;28;20428;-64
2020/12/04 11:39:22;;;;;;;33.60;12.95;;;8.50;79.10;;;;;;4987729;28;20501;-64
2020/12/04 11:41:48;;;;;;;33.28;12.80;;;8.50;79.40;;;;;;4985249;28;20061;-64
2020/12/04 11:44:14;;;;;;;41.95;13.70;;;8.50;79.50;;;;;;4983534;28;20030;-64
2020/12/04 11:46:40;;;;;;;27.35;12.10;;;8.50;79.40;;;;;;4980511;28;20092;-64
2020/12/04 11:49:06;;;;;;;35.78;13.35;;;8.50;79.10;;;;;;4976227;28;20042;-64
2020/12/04 11:51:31;;;;;;;27.08;12.50;;;8.50;79.50;;;;;;4980883;28;20038;-64
2020/12/04 11:53:57;;;;;;;28.98;11.63;;;8.50;79.40;;;;;;4985547;28;20049;-64
2020/12/04 11:56:23;;;;;;;33.90;12.77;;;8.50;79.30;;;;;;4970644;28;20027;-63
2020/12/04 11:58:48;;;;;;;32.88;13.65;;;8.50;79.30;;;;;;4978547;28;20018;-64
2020/12/04 12:01:14;;;;;;;36.35;14.88;;;8.50;79.10;;;;;;4991148;28;20038;-63
2020/12/04 12:03:40;;;;;;;32.05;12.25;;;8.50;79.40;;;;;;4980112;28;20026;-64
2020/12/04 12:06:05;;;;;;;32.75;12.90;;;8.50;79.70;;;;;;4978198;28;20041;-63
2020/12/04 12:08:31;;;;;;;34.47;12.95;;;8.50;79.70;;;;;;4994584;28;20030;-65
2020/12/04 12:10:57;;;;;;;32.28;11.65;;;8.50;79.20;;;;;;4974752;28;20026;-63
2020/12/04 12:13:23;;;;;;;29.38;12.30;;;8.50;79.60;;;;;;4980691;28;20044;-64
2020/12/04 12:15:49;;;;;;;41.63;14.75;;;8.50;79.40;;;;;;4980683;28;20117;-64
2020/12/04 12:18:14;;;;;;;25.67;10.43;;;8.50;79.90;;;;;;4981294;28;20113;-65
2020/12/04 12:20:40;;;;;;;38.78;14.75;;;8.50;79.30;;;;;;4983787;28;20489;-64
2020/12/04 12:23:05;;;;;;;32.20;12.50;;;8.50;79.70;;;;;;4983672;28;20018;-64
2020/12/04 12:25:31;;;;;;;29.08;11.20;;;8.50;79.80;;;;;;4983458;28;20535;-65
2020/12/04 12:27:57;;;;;;;34.83;13.77;;;8.40;79.50;;;;;;4977467;28;20085;-64
2020/12/04 12:30:23;;;;;;;31.20;12.05;;;8.40;79.80;;;;;;4987549;28;20019;-64
2020/12/04 12:32:48;;;;;;;29.88;11.43;;;8.40;79.50;;;;;;4988059;28;20560;-64
2020/12/04 12:35:14;;;;;;;35.60;13.02;;;8.50;79.60;;;;;;4982676;28;20025;-64
2020/12/04 12:37:43;;;;;;;31.90;12.05;;;8.50;79.50;;;;;;4987239;28;20030;-64
2020/12/04 12:40:12;;;;;;;35.97;14.13;;;8.40;79.50;;;;;;4982241;28;20121;-63
2020/12/04 12:42:39;;;;;;;29.70;12.43;;;8.40;79.00;;;;;;4988310;28;20496;-64
2020/12/04 12:45:05;;;;;;;32.00;13.18;;;8.40;79.30;;;;;;4980948;28;20037;-63
2020/12/04 12:47:31;;;;;;;32.08;12.35;;;8.40;79.50;;;;;;4989217;28;20065;-63
2020/12/04 12:49:57;;;;;;;32.63;12.52;;;8.40;79.20;;;;;;4998743;28;20065;-63